sensor_id;sensor_type;location;lat;lon;timestamp;P1;durP1;ratioP1;P2;durP2;ratioP2
43710;SDS011;29309;42.682;23.372;2022-08-01T00:01:51;3.85;;;2.53;;
43710;SDS011;29309;42.682;23.372;2022-08-01T00:04:17;3.80;;;2.63;;
43710;SDS011;29309;42.682;23.372;2022-08-01T00:06:42;4.05;;;3.65;;
43710;SDS011;29309;42.682;23.372;2022-08-01T00:09:08;4.68;;;3.83;;
43710;SDS011;29309;42.682;23.372;2022-08-01T00:11:33;5.10;;;3.70;;
43710;SDS011;29309;42.682;23.372;2022-08-01T00:13:59;4.90;;;3.80;;
43710;SDS011;29309;42.682;23.372;2022-08-01T00:16:24;6.43;;;4.18;;
43710;SDS011;29309;42.682;23.372;2022-08-01T00:18:50;4.65;;;4.13;;
43710;SDS011;29309;42.682;23.372;2022-08-01T00:21:16;5.43;;;4.10;;
43710;SDS011;29309;42.682;23.372;2022-08-01T00:23:42;5.03;;;4.25;;
43710;SDS011;29309;42.682;23.372;2022-08-01T00:26:10;4.68;;;4.20;;
43710;SDS011;29309;42.682;23.372;2022-08-01T00:28:36;4.93;;;4.47;;
43710;SDS011;29309;42.682;23.372;2022-08-01T00:31:01;4.75;;;4.30;;
43710;SDS011;29309;42.682;23.372;2022-08-01T00:33:26;4.82;;;4.32;;
43710;SDS011;29309;42.682;23.372;2022-08-01T00:35:52;5.15;;;4.10;;
43710;SDS011;29309;42.682;23.372;2022-08-01T00:38:17;4.63;;;4.22;;
43710;SDS011;29309;42.682;23.372;2022-08-01T00:40:43;6.50;;;4.60;;
43710;SDS011;29309;42.682;23.372;2022-08-01T00:43:09;5.88;;;4.18;;
43710;SDS011;29309;42.682;23.372;2022-08-01T00:45:34;4.50;;;4.10;;
43710;SDS011;29309;42.682;23.372;2022-08-01T00:48:00;5.57;;;3.92;;
43710;SDS011;29309;42.682;23.372;2022-08-01T00:50:25;4.75;;;4.30;;
43710;SDS011;29309;42.682;23.372;2022-08-01T00:52:51;4.97;;;3.60;;
43710;SDS011;29309;42.682;23.372;2022-08-01T00:55:17;8.38;;;4.00;;
43710;SDS011;29309;42.682;23.372;2022-08-01T00:57:43;4.53;;;3.90;;
43710;SDS011;29309;42.682;23.372;2022-08-01T01:00:09;6.80;;;3.88;;
43710;SDS011;29309;42.682;23.372;2022-08-01T01:02:35;8.75;;;4.43;;
43710;SDS011;29309;42.682;23.372;2022-08-01T01:05:01;4.88;;;4.07;;
43710;SDS011;29309;42.682;23.372;2022-08-01T01:07:32;4.45;;;3.95;;
43710;SDS011;29309;42.682;23.372;2022-08-01T01:10:29;4.03;;;3.58;;
43710;SDS011;29309;42.682;23.372;2022-08-01T01:13:11;5.47;;;3.75;;
43710;SDS011;29309;42.682;23.372;2022-08-01T01:15:47;5.82;;;3.90;;
43710;SDS011;29309;42.682;23.372;2022-08-01T01:18:22;3.83;;;3.30;;
43710;SDS011;29309;42.682;23.372;2022-08-01T01:21:13;5.05;;;3.53;;
43710;SDS011;29309;42.682;23.372;2022-08-01T01:29:22;4.00;;;3.55;;
43710;SDS011;29309;42.682;23.372;2022-08-01T01:32:04;3.92;;;3.28;;
43710;SDS011;29309;42.682;23.372;2022-08-01T01:34:34;3.85;;;3.50;;
43710;SDS011;29309;42.682;23.372;2022-08-01T01:37:02;4.45;;;3.72;;
43710;SDS011;29309;42.682;23.372;2022-08-01T01:39:31;9.80;;;4.03;;
43710;SDS011;29309;42.682;23.372;2022-08-01T01:41:58;4.10;;;3.67;;
43710;SDS011;29309;42.682;23.372;2022-08-01T01:44:26;6.20;;;3.50;;
43710;SDS011;29309;42.682;23.372;2022-08-01T01:46:52;3.08;;;2.78;;
43710;SDS011;29309;42.682;23.372;2022-08-01T01:49:23;3.22;;;2.90;;
43710;SDS011;29309;42.682;23.372;2022-08-01T01:51:51;3.72;;;3.08;;
43710;SDS011;29309;42.682;23.372;2022-08-01T01:54:20;7.20;;;4.18;;
43710;SDS011;29309;42.682;23.372;2022-08-01T01:56:54;7.57;;;3.90;;
43710;SDS011;29309;42.682;23.372;2022-08-01T01:59:24;3.00;;;2.60;;
43710;SDS011;29309;42.682;23.372;2022-08-01T02:01:52;3.60;;;3.00;;
43710;SDS011;29309;42.682;23.372;2022-08-01T02:04:20;3.33;;;2.78;;
43710;SDS011;29309;42.682;23.372;2022-08-01T02:06:47;3.00;;;2.70;;
43710;SDS011;29309;42.682;23.372;2022-08-01T02:09:16;2.42;;;2.22;;
43710;SDS011;29309;42.682;23.372;2022-08-01T02:11:44;5.30;;;2.42;;
43710;SDS011;29309;42.682;23.372;2022-08-01T02:14:12;3.88;;;2.42;;
43710;SDS011;29309;42.682;23.372;2022-08-01T02:16:39;6.72;;;3.55;;
43710;SDS011;29309;42.682;23.372;2022-08-01T02:19:08;4.15;;;2.80;;
43710;SDS011;29309;42.682;23.372;2022-08-01T02:21:37;3.45;;;2.42;;
43710;SDS011;29309;42.682;23.372;2022-08-01T02:24:13;3.13;;;2.55;;
43710;SDS011;29309;42.682;23.372;2022-08-01T02:26:48;5.03;;;2.50;;
43710;SDS011;29309;42.682;23.372;2022-08-01T02:29:18;2.75;;;2.50;;
43710;SDS011;29309;42.682;23.372;2022-08-01T02:31:49;4.25;;;2.90;;
43710;SDS011;29309;42.682;23.372;2022-08-01T02:34:19;5.65;;;2.72;;
43710;SDS011;29309;42.682;23.372;2022-08-01T02:36:47;6.95;;;3.10;;
43710;SDS011;29309;42.682;23.372;2022-08-01T02:39:14;6.60;;;4.72;;
43710;SDS011;29309;42.682;23.372;2022-08-01T02:41:43;3.30;;;2.50;;
43710;SDS011;29309;42.682;23.372;2022-08-01T02:44:15;4.50;;;3.30;;
43710;SDS011;29309;42.682;23.372;2022-08-01T02:47:00;4.15;;;2.40;;
43710;SDS011;29309;42.682;23.372;2022-08-01T02:49:29;4.50;;;2.30;;
43710;SDS011;29309;42.682;23.372;2022-08-01T02:51:58;2.53;;;2.33;;
43710;SDS011;29309;42.682;23.372;2022-08-01T02:54:26;2.80;;;1.98;;
43710;SDS011;29309;42.682;23.372;2022-08-01T02:56:54;3.63;;;2.85;;
43710;SDS011;29309;42.682;23.372;2022-08-01T02:59:21;3.80;;;2.45;;
43710;SDS011;29309;42.682;23.372;2022-08-01T03:01:51;3.22;;;2.42;;
43710;SDS011;29309;42.682;23.372;2022-08-01T03:04:20;4.10;;;2.92;;
43710;SDS011;29309;42.682;23.372;2022-08-01T03:06:47;4.93;;;2.60;;
43710;SDS011;29309;42.682;23.372;2022-08-01T03:09:13;5.63;;;2.65;;
43710;SDS011;29309;42.682;23.372;2022-08-01T03:11:41;3.10;;;2.50;;
43710;SDS011;29309;42.682;23.372;2022-08-01T03:14:07;2.58;;;2.38;;
43710;SDS011;29309;42.682;23.372;2022-08-01T03:16:35;3.17;;;2.45;;
43710;SDS011;29309;42.682;23.372;2022-08-01T03:19:03;3.85;;;2.47;;
43710;SDS011;29309;42.682;23.372;2022-08-01T03:21:30;3.58;;;2.70;;
43710;SDS011;29309;42.682;23.372;2022-08-01T03:23:57;17.08;;;2.78;;
43710;SDS011;29309;42.682;23.372;2022-08-01T03:26:28;3.05;;;2.65;;
43710;SDS011;29309;42.682;23.372;2022-08-01T03:28:56;3.85;;;2.60;;
43710;SDS011;29309;42.682;23.372;2022-08-01T03:31:25;3.03;;;2.72;;
43710;SDS011;29309;42.682;23.372;2022-08-01T03:33:51;4.97;;;3.38;;
43710;SDS011;29309;42.682;23.372;2022-08-01T03:36:17;3.95;;;3.30;;
43710;SDS011;29309;42.682;23.372;2022-08-01T03:38:48;3.38;;;2.65;;
43710;SDS011;29309;42.682;23.372;2022-08-01T03:41:18;3.10;;;2.80;;
43710;SDS011;29309;42.682;23.372;2022-08-01T03:43:55;3.30;;;2.75;;
43710;SDS011;29309;42.682;23.372;2022-08-01T03:46:30;4.05;;;3.20;;
43710;SDS011;29309;42.682;23.372;2022-08-01T03:49:06;7.40;;;3.20;;
43710;SDS011;29309;42.682;23.372;2022-08-01T03:51:36;5.68;;;3.08;;
43710;SDS011;29309;42.682;23.372;2022-08-01T03:54:03;4.57;;;2.92;;
43710;SDS011;29309;42.682;23.372;2022-08-01T03:56:30;3.55;;;3.00;;
43710;SDS011;29309;42.682;23.372;2022-08-01T03:58:57;2.97;;;2.67;;
43710;SDS011;29309;42.682;23.372;2022-08-01T04:01:24;4.93;;;2.55;;
43710;SDS011;29309;42.682;23.372;2022-08-01T04:03:51;3.65;;;2.58;;
43710;SDS011;29309;42.682;23.372;2022-08-01T04:06:17;6.88;;;2.60;;
43710;SDS011;29309;42.682;23.372;2022-08-01T04:08:43;3.95;;;3.08;;
43710;SDS011;29309;42.682;23.372;2022-08-01T04:11:23;6.85;;;2.97;;
43710;SDS011;29309;42.682;23.372;2022-08-01T04:13:50;4.30;;;3.00;;
43710;SDS011;29309;42.682;23.372;2022-08-01T04:16:18;5.00;;;2.45;;
43710;SDS011;29309;42.682;23.372;2022-08-01T04:18:44;5.57;;;3.33;;
43710;SDS011;29309;42.682;23.372;2022-08-01T04:21:09;7.13;;;2.97;;
43710;SDS011;29309;42.682;23.372;2022-08-01T04:23:35;6.40;;;3.25;;
43710;SDS011;29309;42.682;23.372;2022-08-01T04:26:03;7.60;;;3.35;;
43710;SDS011;29309;42.682;23.372;2022-08-01T04:28:31;4.20;;;3.30;;
43710;SDS011;29309;42.682;23.372;2022-08-01T04:30:59;5.03;;;3.10;;
43710;SDS011;29309;42.682;23.372;2022-08-01T04:33:25;6.30;;;3.92;;
43710;SDS011;29309;42.682;23.372;2022-08-01T04:35:53;6.20;;;4.30;;
43710;SDS011;29309;42.682;23.372;2022-08-01T04:38:24;5.25;;;3.58;;
43710;SDS011;29309;42.682;23.372;2022-08-01T04:40:52;8.70;;;3.90;;
43710;SDS011;29309;42.682;23.372;2022-08-01T04:43:19;11.15;;;3.60;;
43710;SDS011;29309;42.682;23.372;2022-08-01T04:45:46;7.13;;;4.07;;
43710;SDS011;29309;42.682;23.372;2022-08-01T04:48:13;9.05;;;4.45;;
43710;SDS011;29309;42.682;23.372;2022-08-01T04:50:42;6.38;;;4.30;;
43710;SDS011;29309;42.682;23.372;2022-08-01T04:53:14;12.27;;;4.82;;
43710;SDS011;29309;42.682;23.372;2022-08-01T04:55:43;9.40;;;4.63;;
43710;SDS011;29309;42.682;23.372;2022-08-01T04:58:09;7.55;;;3.88;;
43710;SDS011;29309;42.682;23.372;2022-08-01T05:00:35;6.90;;;4.28;;
43710;SDS011;29309;42.682;23.372;2022-08-01T05:03:01;11.90;;;4.82;;
43710;SDS011;29309;42.682;23.372;2022-08-01T05:05:27;14.88;;;5.28;;
43710;SDS011;29309;42.682;23.372;2022-08-01T05:07:52;13.38;;;4.40;;
43710;SDS011;29309;42.682;23.372;2022-08-01T05:10:18;11.55;;;4.85;;
43710;SDS011;29309;42.682;23.372;2022-08-01T05:12:43;7.45;;;4.70;;
43710;SDS011;29309;42.682;23.372;2022-08-01T05:15:09;8.18;;;4.30;;
43710;SDS011;29309;42.682;23.372;2022-08-01T05:17:34;7.40;;;3.60;;
43710;SDS011;29309;42.682;23.372;2022-08-01T05:20:00;5.75;;;3.92;;
43710;SDS011;29309;42.682;23.372;2022-08-01T05:22:26;9.93;;;4.70;;
43710;SDS011;29309;42.682;23.372;2022-08-01T05:24:52;6.68;;;4.18;;
43710;SDS011;29309;42.682;23.372;2022-08-01T05:27:17;8.60;;;3.67;;
43710;SDS011;29309;42.682;23.372;2022-08-01T05:29:43;5.78;;;2.90;;
43710;SDS011;29309;42.682;23.372;2022-08-01T05:32:09;5.93;;;3.85;;
43710;SDS011;29309;42.682;23.372;2022-08-01T05:34:34;7.20;;;3.50;;
43710;SDS011;29309;42.682;23.372;2022-08-01T05:37:00;6.50;;;3.58;;
43710;SDS011;29309;42.682;23.372;2022-08-01T05:39:26;4.82;;;2.92;;
43710;SDS011;29309;42.682;23.372;2022-08-01T05:41:51;7.40;;;3.25;;
43710;SDS011;29309;42.682;23.372;2022-08-01T05:44:18;10.73;;;3.53;;
43710;SDS011;29309;42.682;23.372;2022-08-01T05:46:43;8.52;;;2.92;;
43710;SDS011;29309;42.682;23.372;2022-08-01T05:49:09;5.50;;;2.45;;
43710;SDS011;29309;42.682;23.372;2022-08-01T05:51:34;3.65;;;2.50;;
43710;SDS011;29309;42.682;23.372;2022-08-01T05:53:59;6.53;;;2.53;;
43710;SDS011;29309;42.682;23.372;2022-08-01T05:56:25;5.25;;;2.97;;
43710;SDS011;29309;42.682;23.372;2022-08-01T05:58:51;5.43;;;2.75;;
43710;SDS011;29309;42.682;23.372;2022-08-01T06:01:17;4.55;;;2.42;;
43710;SDS011;29309;42.682;23.372;2022-08-01T06:03:44;6.32;;;2.13;;
43710;SDS011;29309;42.682;23.372;2022-08-01T06:06:10;9.98;;;2.88;;
43710;SDS011;29309;42.682;23.372;2022-08-01T06:08:37;8.18;;;3.05;;
43710;SDS011;29309;42.682;23.372;2022-08-01T06:11:02;3.30;;;2.42;;
43710;SDS011;29309;42.682;23.372;2022-08-01T06:13:28;4.93;;;2.63;;
43710;SDS011;29309;42.682;23.372;2022-08-01T06:15:53;49.67;;;7.82;;
43710;SDS011;29309;42.682;23.372;2022-08-01T06:18:19;7.72;;;2.47;;
43710;SDS011;29309;42.682;23.372;2022-08-01T06:20:46;3.30;;;2.20;;
43710;SDS011;29309;42.682;23.372;2022-08-01T06:23:12;4.28;;;2.22;;
43710;SDS011;29309;42.682;23.372;2022-08-01T06:25:40;5.05;;;2.08;;
43710;SDS011;29309;42.682;23.372;2022-08-01T06:28:07;5.53;;;2.25;;
43710;SDS011;29309;42.682;23.372;2022-08-01T06:30:32;4.53;;;1.85;;
43710;SDS011;29309;42.682;23.372;2022-08-01T06:32:58;3.53;;;2.33;;
43710;SDS011;29309;42.682;23.372;2022-08-01T06:35:25;4.53;;;2.33;;
43710;SDS011;29309;42.682;23.372;2022-08-01T06:37:51;4.28;;;2.00;;
43710;SDS011;29309;42.682;23.372;2022-08-01T06:40:17;3.75;;;2.38;;
43710;SDS011;29309;42.682;23.372;2022-08-01T06:42:43;2.83;;;1.85;;
43710;SDS011;29309;42.682;23.372;2022-08-01T06:45:10;2.30;;;1.75;;
43710;SDS011;29309;42.682;23.372;2022-08-01T06:47:39;2.83;;;1.38;;
43710;SDS011;29309;42.682;23.372;2022-08-01T06:50:07;4.78;;;1.60;;
43710;SDS011;29309;42.682;23.372;2022-08-01T06:52:34;1.83;;;1.50;;
43710;SDS011;29309;42.682;23.372;2022-08-01T06:55:03;2.85;;;1.60;;
43710;SDS011;29309;42.682;23.372;2022-08-01T06:57:29;5.55;;;1.42;;
43710;SDS011;29309;42.682;23.372;2022-08-01T06:59:55;11.50;;;2.97;;
43710;SDS011;29309;42.682;23.372;2022-08-01T07:02:21;1.95;;;1.40;;
43710;SDS011;29309;42.682;23.372;2022-08-01T07:04:47;5.90;;;1.75;;
43710;SDS011;29309;42.682;23.372;2022-08-01T07:07:13;2.42;;;1.50;;
43710;SDS011;29309;42.682;23.372;2022-08-01T07:09:38;6.70;;;1.95;;
43710;SDS011;29309;42.682;23.372;2022-08-01T07:12:06;3.53;;;2.22;;
43710;SDS011;29309;42.682;23.372;2022-08-01T07:14:32;4.82;;;1.67;;
43710;SDS011;29309;42.682;23.372;2022-08-01T07:16:58;4.57;;;1.77;;
43710;SDS011;29309;42.682;23.372;2022-08-01T07:19:23;4.68;;;1.88;;
43710;SDS011;29309;42.682;23.372;2022-08-01T07:21:49;2.38;;;1.58;;
43710;SDS011;29309;42.682;23.372;2022-08-01T07:24:14;4.65;;;2.38;;
43710;SDS011;29309;42.682;23.372;2022-08-01T07:26:44;2.85;;;1.80;;
43710;SDS011;29309;42.682;23.372;2022-08-01T07:29:11;12.68;;;2.60;;
43710;SDS011;29309;42.682;23.372;2022-08-01T07:31:36;2.83;;;1.88;;
43710;SDS011;29309;42.682;23.372;2022-08-01T07:34:02;2.15;;;1.83;;
43710;SDS011;29309;42.682;23.372;2022-08-01T07:36:28;5.25;;;1.85;;
43710;SDS011;29309;42.682;23.372;2022-08-01T07:38:53;5.80;;;2.42;;
43710;SDS011;29309;42.682;23.372;2022-08-01T07:41:19;3.22;;;2.10;;
43710;SDS011;29309;42.682;23.372;2022-08-01T07:43:45;3.25;;;1.55;;
43710;SDS011;29309;42.682;23.372;2022-08-01T07:46:12;6.28;;;1.63;;
43710;SDS011;29309;42.682;23.372;2022-08-01T07:48:37;2.58;;;1.90;;
43710;SDS011;29309;42.682;23.372;2022-08-01T07:51:03;3.72;;;1.40;;
43710;SDS011;29309;42.682;23.372;2022-08-01T07:53:28;2.58;;;1.80;;
43710;SDS011;29309;42.682;23.372;2022-08-01T07:55:54;4.93;;;1.63;;
43710;SDS011;29309;42.682;23.372;2022-08-01T07:58:19;3.22;;;1.58;;
43710;SDS011;29309;42.682;23.372;2022-08-01T08:00:45;6.18;;;1.65;;
43710;SDS011;29309;42.682;23.372;2022-08-01T08:03:10;2.20;;;1.70;;
43710;SDS011;29309;42.682;23.372;2022-08-01T08:05:36;3.17;;;1.67;;
43710;SDS011;29309;42.682;23.372;2022-08-01T08:08:02;5.10;;;1.52;;
43710;SDS011;29309;42.682;23.372;2022-08-01T08:10:31;1.75;;;1.63;;
43710;SDS011;29309;42.682;23.372;2022-08-01T08:12:56;7.43;;;1.85;;
43710;SDS011;29309;42.682;23.372;2022-08-01T08:15:22;4.88;;;1.77;;
43710;SDS011;29309;42.682;23.372;2022-08-01T08:17:48;4.72;;;2.17;;
43710;SDS011;29309;42.682;23.372;2022-08-01T08:20:13;2.95;;;1.98;;
43710;SDS011;29309;42.682;23.372;2022-08-01T08:22:39;3.75;;;1.80;;
43710;SDS011;29309;42.682;23.372;2022-08-01T08:25:05;5.18;;;1.48;;
43710;SDS011;29309;42.682;23.372;2022-08-01T08:27:31;6.88;;;1.70;;
43710;SDS011;29309;42.682;23.372;2022-08-01T08:29:57;5.43;;;1.98;;
43710;SDS011;29309;42.682;23.372;2022-08-01T08:32:22;2.90;;;2.10;;
43710;SDS011;29309;42.682;23.372;2022-08-01T08:34:47;3.08;;;1.75;;
43710;SDS011;29309;42.682;23.372;2022-08-01T08:37:13;2.33;;;1.60;;
43710;SDS011;29309;42.682;23.372;2022-08-01T08:39:38;3.03;;;1.50;;
43710;SDS011;29309;42.682;23.372;2022-08-01T08:42:08;4.68;;;1.95;;
43710;SDS011;29309;42.682;23.372;2022-08-01T08:44:34;3.53;;;1.67;;
43710;SDS011;29309;42.682;23.372;2022-08-01T08:47:00;6.85;;;2.13;;
43710;SDS011;29309;42.682;23.372;2022-08-01T08:49:30;4.75;;;1.58;;
43710;SDS011;29309;42.682;23.372;2022-08-01T08:51:58;1.83;;;1.63;;
43710;SDS011;29309;42.682;23.372;2022-08-01T08:54:25;3.92;;;1.92;;
43710;SDS011;29309;42.682;23.372;2022-08-01T08:56:53;2.72;;;1.65;;
43710;SDS011;29309;42.682;23.372;2022-08-01T08:59:19;4.18;;;1.85;;
43710;SDS011;29309;42.682;23.372;2022-08-01T09:01:45;2.58;;;1.98;;
43710;SDS011;29309;42.682;23.372;2022-08-01T09:04:11;3.85;;;1.65;;
43710;SDS011;29309;42.682;23.372;2022-08-01T09:06:37;4.20;;;1.70;;
43710;SDS011;29309;42.682;23.372;2022-08-01T09:09:03;3.45;;;1.60;;
43710;SDS011;29309;42.682;23.372;2022-08-01T09:11:30;2.53;;;1.70;;
43710;SDS011;29309;42.682;23.372;2022-08-01T09:16:42;4.47;;;1.60;;
43710;SDS011;29309;42.682;23.372;2022-08-01T09:19:16;2.67;;;1.52;;
43710;SDS011;29309;42.682;23.372;2022-08-01T09:22:01;4.63;;;1.60;;
43710;SDS011;29309;42.682;23.372;2022-08-01T09:24:29;4.50;;;1.55;;
43710;SDS011;29309;42.682;23.372;2022-08-01T09:26:56;2.55;;;1.85;;
43710;SDS011;29309;42.682;23.372;2022-08-01T09:29:26;3.65;;;2.67;;
43710;SDS011;29309;42.682;23.372;2022-08-01T09:31:53;4.18;;;2.00;;
43710;SDS011;29309;42.682;23.372;2022-08-01T09:34:27;2.33;;;1.48;;
43710;SDS011;29309;42.682;23.372;2022-08-01T09:36:55;4.97;;;2.05;;
43710;SDS011;29309;42.682;23.372;2022-08-01T09:39:29;2.58;;;1.75;;
43710;SDS011;29309;42.682;23.372;2022-08-01T09:41:57;5.65;;;1.60;;
43710;SDS011;29309;42.682;23.372;2022-08-01T09:44:38;5.32;;;2.05;;
43710;SDS011;29309;42.682;23.372;2022-08-01T09:47:04;1.92;;;1.25;;
43710;SDS011;29309;42.682;23.372;2022-08-01T09:49:31;1.90;;;1.45;;
43710;SDS011;29309;42.682;23.372;2022-08-01T09:52:11;2.13;;;1.50;;
43710;SDS011;29309;42.682;23.372;2022-08-01T09:54:39;2.08;;;1.30;;
43710;SDS011;29309;42.682;23.372;2022-08-01T09:57:13;2.25;;;1.70;;
43710;SDS011;29309;42.682;23.372;2022-08-01T09:59:43;3.25;;;1.52;;
43710;SDS011;29309;42.682;23.372;2022-08-01T10:02:11;4.50;;;1.50;;
43710;SDS011;29309;42.682;23.372;2022-08-01T10:04:47;3.47;;;1.52;;
43710;SDS011;29309;42.682;23.372;2022-08-01T10:07:14;3.78;;;1.58;;
43710;SDS011;29309;42.682;23.372;2022-08-01T10:09:41;2.30;;;1.30;;
43710;SDS011;29309;42.682;23.372;2022-08-01T10:12:07;3.20;;;1.63;;
43710;SDS011;29309;42.682;23.372;2022-08-01T10:14:37;1.90;;;1.70;;
43710;SDS011;29309;42.682;23.372;2022-08-01T10:17:03;4.65;;;1.63;;
43710;SDS011;29309;42.682;23.372;2022-08-01T10:19:32;2.65;;;1.67;;
43710;SDS011;29309;42.682;23.372;2022-08-01T10:22:01;3.88;;;1.70;;
43710;SDS011;29309;42.682;23.372;2022-08-01T10:24:29;6.38;;;2.17;;
43710;SDS011;29309;42.682;23.372;2022-08-01T10:26:57;2.10;;;1.73;;
43710;SDS011;29309;42.682;23.372;2022-08-01T10:29:28;4.97;;;1.80;;
43710;SDS011;29309;42.682;23.372;2022-08-01T10:32:02;1.50;;;1.40;;
43710;SDS011;29309;42.682;23.372;2022-08-01T10:34:30;3.75;;;1.90;;
43710;SDS011;29309;42.682;23.372;2022-08-01T10:36:56;3.38;;;1.40;;
43710;SDS011;29309;42.682;23.372;2022-08-01T10:39:22;3.70;;;1.55;;
43710;SDS011;29309;42.682;23.372;2022-08-01T10:41:50;4.85;;;1.92;;
43710;SDS011;29309;42.682;23.372;2022-08-01T10:44:15;4.97;;;1.30;;
43710;SDS011;29309;42.682;23.372;2022-08-01T10:46:42;6.18;;;1.60;;
43710;SDS011;29309;42.682;23.372;2022-08-01T10:49:13;3.17;;;1.60;;
43710;SDS011;29309;42.682;23.372;2022-08-01T10:51:41;4.88;;;2.58;;
43710;SDS011;29309;42.682;23.372;2022-08-01T10:54:09;2.10;;;1.80;;
43710;SDS011;29309;42.682;23.372;2022-08-01T10:56:45;2.35;;;1.63;;
43710;SDS011;29309;42.682;23.372;2022-08-01T11:02:02;2.80;;;1.35;;
43710;SDS011;29309;42.682;23.372;2022-08-01T11:07:23;1.67;;;1.30;;
43710;SDS011;29309;42.682;23.372;2022-08-01T11:10:04;3.53;;;1.90;;
43710;SDS011;29309;42.682;23.372;2022-08-01T11:12:40;4.10;;;1.42;;
43710;SDS011;29309;42.682;23.372;2022-08-01T11:30:52;2.72;;;1.60;;
43710;SDS011;29309;42.682;23.372;2022-08-01T11:34:05;5.18;;;2.50;;
43710;SDS011;29309;42.682;23.372;2022-08-01T11:38:37;15.85;;;2.30;;
43710;SDS011;29309;42.682;23.372;2022-08-01T11:41:15;4.18;;;2.08;;
43710;SDS011;29309;42.682;23.372;2022-08-01T11:52:00;24.83;;;2.83;;
43710;SDS011;29309;42.682;23.372;2022-08-01T11:54:30;6.05;;;1.42;;
43710;SDS011;29309;42.682;23.372;2022-08-01T11:56:59;1.83;;;1.20;;
43710;SDS011;29309;42.682;23.372;2022-08-01T11:59:26;1.85;;;1.45;;
43710;SDS011;29309;42.682;23.372;2022-08-01T12:01:52;1.75;;;1.60;;
43710;SDS011;29309;42.682;23.372;2022-08-01T12:04:18;1.90;;;1.73;;
43710;SDS011;29309;42.682;23.372;2022-08-01T12:06:44;1.98;;;1.50;;
43710;SDS011;29309;42.682;23.372;2022-08-01T12:09:20;3.67;;;1.92;;
43710;SDS011;29309;42.682;23.372;2022-08-01T12:11:48;2.45;;;1.85;;
43710;SDS011;29309;42.682;23.372;2022-08-01T12:14:18;2.20;;;1.63;;
43710;SDS011;29309;42.682;23.372;2022-08-01T12:16:51;5.70;;;2.20;;
43710;SDS011;29309;42.682;23.372;2022-08-01T12:19:19;4.90;;;1.80;;
43710;SDS011;29309;42.682;23.372;2022-08-01T12:22:04;2.90;;;1.90;;
43710;SDS011;29309;42.682;23.372;2022-08-01T12:24:34;2.78;;;1.65;;
43710;SDS011;29309;42.682;23.372;2022-08-01T12:27:00;5.05;;;2.00;;
43710;SDS011;29309;42.682;23.372;2022-08-01T12:29:37;3.30;;;1.67;;
43710;SDS011;29309;42.682;23.372;2022-08-01T12:32:19;2.90;;;2.10;;
43710;SDS011;29309;42.682;23.372;2022-08-01T12:34:46;3.33;;;1.88;;
43710;SDS011;29309;42.682;23.372;2022-08-01T12:37:12;1.77;;;1.55;;
43710;SDS011;29309;42.682;23.372;2022-08-01T12:39:37;2.08;;;1.88;;
43710;SDS011;29309;42.682;23.372;2022-08-01T12:42:06;15.32;;;3.10;;
43710;SDS011;29309;42.682;23.372;2022-08-01T12:44:35;6.82;;;2.00;;
43710;SDS011;29309;42.682;23.372;2022-08-01T12:47:01;2.15;;;1.77;;
43710;SDS011;29309;42.682;23.372;2022-08-01T12:49:29;2.92;;;2.50;;
43710;SDS011;29309;42.682;23.372;2022-08-01T12:51:56;4.47;;;1.80;;
43710;SDS011;29309;42.682;23.372;2022-08-01T12:54:22;2.72;;;1.80;;
43710;SDS011;29309;42.682;23.372;2022-08-01T12:56:50;4.28;;;2.28;;
43710;SDS011;29309;42.682;23.372;2022-08-01T12:59:24;2.08;;;1.88;;
43710;SDS011;29309;42.682;23.372;2022-08-01T13:01:52;2.60;;;1.80;;
43710;SDS011;29309;42.682;23.372;2022-08-01T13:04:19;2.67;;;1.83;;
43710;SDS011;29309;42.682;23.372;2022-08-01T13:06:45;4.78;;;1.88;;
43710;SDS011;29309;42.682;23.372;2022-08-01T13:09:11;2.90;;;1.77;;
43710;SDS011;29309;42.682;23.372;2022-08-01T13:11:38;4.40;;;2.30;;
43710;SDS011;29309;42.682;23.372;2022-08-01T13:14:05;2.08;;;1.88;;
43710;SDS011;29309;42.682;23.372;2022-08-01T13:16:32;4.20;;;1.73;;
43710;SDS011;29309;42.682;23.372;2022-08-01T13:19:09;2.15;;;1.95;;
43710;SDS011;29309;42.682;23.372;2022-08-01T13:21:35;2.80;;;2.47;;
43710;SDS011;29309;42.682;23.372;2022-08-01T13:24:05;2.38;;;1.58;;
43710;SDS011;29309;42.682;23.372;2022-08-01T13:26:46;2.83;;;1.90;;
43710;SDS011;29309;42.682;23.372;2022-08-01T13:29:29;2.33;;;1.90;;
43710;SDS011;29309;42.682;23.372;2022-08-01T13:31:57;3.17;;;1.55;;
43710;SDS011;29309;42.682;23.372;2022-08-01T13:34:30;3.30;;;2.20;;
43710;SDS011;29309;42.682;23.372;2022-08-01T13:36:57;3.95;;;1.88;;
43710;SDS011;29309;42.682;23.372;2022-08-01T13:39:23;3.22;;;2.50;;
43710;SDS011;29309;42.682;23.372;2022-08-01T13:42:09;3.33;;;2.88;;
43710;SDS011;29309;42.682;23.372;2022-08-01T13:44:36;4.65;;;2.08;;
43710;SDS011;29309;42.682;23.372;2022-08-01T13:47:05;3.28;;;2.00;;
43710;SDS011;29309;42.682;23.372;2022-08-01T13:49:31;3.40;;;2.13;;
43710;SDS011;29309;42.682;23.372;2022-08-01T13:51:57;2.75;;;1.73;;
43710;SDS011;29309;42.682;23.372;2022-08-01T13:54:22;3.15;;;1.92;;
43710;SDS011;29309;42.682;23.372;2022-08-01T13:56:48;6.35;;;1.60;;
43710;SDS011;29309;42.682;23.372;2022-08-01T13:59:14;2.08;;;1.73;;
43710;SDS011;29309;42.682;23.372;2022-08-01T14:01:40;3.30;;;2.17;;
43710;SDS011;29309;42.682;23.372;2022-08-01T14:04:06;3.65;;;1.77;;
43710;SDS011;29309;42.682;23.372;2022-08-01T14:06:32;1.92;;;1.63;;
43710;SDS011;29309;42.682;23.372;2022-08-01T14:08:57;2.90;;;1.67;;
43710;SDS011;29309;42.682;23.372;2022-08-01T14:11:23;1.70;;;1.60;;
43710;SDS011;29309;42.682;23.372;2022-08-01T14:13:48;4.45;;;2.13;;
43710;SDS011;29309;42.682;23.372;2022-08-01T14:16:14;3.35;;;1.60;;
43710;SDS011;29309;42.682;23.372;2022-08-01T14:18:41;2.38;;;1.70;;
43710;SDS011;29309;42.682;23.372;2022-08-01T14:21:06;4.60;;;2.17;;
43710;SDS011;29309;42.682;23.372;2022-08-01T14:23:32;2.90;;;1.90;;
43710;SDS011;29309;42.682;23.372;2022-08-01T14:25:57;3.80;;;1.80;;
43710;SDS011;29309;42.682;23.372;2022-08-01T14:28:23;2.60;;;1.90;;
43710;SDS011;29309;42.682;23.372;2022-08-01T14:30:49;3.17;;;1.85;;
43710;SDS011;29309;42.682;23.372;2022-08-01T14:33:15;3.60;;;2.00;;
43710;SDS011;29309;42.682;23.372;2022-08-01T14:35:40;2.88;;;1.73;;
43710;SDS011;29309;42.682;23.372;2022-08-01T14:38:06;2.25;;;1.75;;
43710;SDS011;29309;42.682;23.372;2022-08-01T14:40:32;5.22;;;1.42;;
43710;SDS011;29309;42.682;23.372;2022-08-01T14:42:58;6.63;;;1.90;;
43710;SDS011;29309;42.682;23.372;2022-08-01T14:45:26;1.92;;;1.60;;
43710;SDS011;29309;42.682;23.372;2022-08-01T14:47:52;3.85;;;1.80;;
43710;SDS011;29309;42.682;23.372;2022-08-01T14:50:17;3.72;;;2.80;;
43710;SDS011;29309;42.682;23.372;2022-08-01T14:52:43;3.65;;;1.60;;
43710;SDS011;29309;42.682;23.372;2022-08-01T14:55:09;2.47;;;1.63;;
43710;SDS011;29309;42.682;23.372;2022-08-01T14:57:36;3.13;;;1.50;;
43710;SDS011;29309;42.682;23.372;2022-08-01T15:00:03;2.58;;;2.10;;
43710;SDS011;29309;42.682;23.372;2022-08-01T15:02:30;2.03;;;1.63;;
43710;SDS011;29309;42.682;23.372;2022-08-01T15:04:55;2.08;;;1.60;;
43710;SDS011;29309;42.682;23.372;2022-08-01T15:07:21;1.88;;;1.58;;
43710;SDS011;29309;42.682;23.372;2022-08-01T15:09:46;1.73;;;1.63;;
43710;SDS011;29309;42.682;23.372;2022-08-01T15:12:12;1.67;;;1.35;;
43710;SDS011;29309;42.682;23.372;2022-08-01T15:14:38;2.30;;;1.80;;
43710;SDS011;29309;42.682;23.372;2022-08-01T15:17:17;1.63;;;1.52;;
43710;SDS011;29309;42.682;23.372;2022-08-01T15:19:43;2.88;;;1.67;;